createdAt,value
2022-09-20T00:00:30.280Z,17.17
2022-09-20T00:03:03.412Z,18.73
2022-09-20T00:05:52.281Z,18.40
2022-09-20T00:08:32.268Z,17.02
2022-09-20T00:11:32.261Z,16.55
2022-09-20T00:14:20.272Z,16.05
2022-09-20T00:16:53.468Z,15.80
2022-09-20T00:19:40.284Z,17.50
2022-09-20T00:22:20.282Z,16.95
2022-09-20T00:25:07.287Z,17.13
2022-09-20T00:27:40.656Z,17.85
2022-09-20T00:30:27.275Z,16.65
2022-09-20T00:33:07.294Z,17.08
2022-09-20T00:36:01.280Z,15.80
2022-09-20T00:38:55.289Z,17.60
2022-09-20T00:41:42.286Z,16.95
2022-09-20T00:44:47.725Z,17.98
2022-09-20T00:47:43.291Z,15.02
2022-09-20T00:50:42.291Z,16.10
2022-09-20T00:53:44.291Z,15.27
2022-09-20T00:56:40.286Z,16.77
2022-09-20T00:59:32.426Z,17.35
2022-09-20T01:02:25.361Z,17.42
2022-09-20T01:04:59.408Z,17.55
2022-09-20T01:07:48.294Z,16.65
2022-09-20T01:10:21.435Z,16.48
2022-09-20T01:13:08.297Z,18.65
2022-09-20T01:15:44.386Z,18.95
2022-09-20T01:18:32.299Z,17.00
2022-09-20T01:21:14.321Z,17.83
2022-09-20T01:24:15.304Z,18.50
2022-09-20T01:26:57.630Z,15.82
2022-09-20T01:30:10.327Z,14.82
2022-09-20T01:32:57.451Z,16.73
2022-09-20T01:35:47.292Z,17.85
2022-09-20T01:38:27.338Z,17.00
2022-09-20T01:41:52.306Z,17.60
2022-09-20T01:44:46.520Z,16.30
2022-09-20T01:47:42.422Z,18.40
2022-09-20T01:50:49.315Z,18.50
2022-09-20T01:53:43.318Z,17.50
2022-09-20T01:57:12.315Z,18.08
2022-09-20T02:00:02.310Z,17.15
2022-09-20T02:03:12.458Z,18.50
2022-09-20T02:06:29.317Z,18.65
2022-09-20T02:09:28.327Z,16.90
2022-09-20T02:12:49.319Z,17.20
2022-09-20T02:15:58.342Z,17.60
2022-09-20T02:19:12.330Z,18.20
2022-09-20T02:22:05.339Z,17.70
2022-09-20T02:24:59.456Z,18.33
2022-09-20T02:28:00.324Z,19.13
2022-09-20T02:31:03.337Z,18.95
2022-09-20T02:34:51.310Z,17.40
2022-09-20T02:37:48.340Z,14.63
2022-09-20T02:41:13.312Z,18.00
2022-09-20T02:44:20.334Z,18.55
2022-09-20T02:47:41.321Z,18.20
2022-09-20T02:50:56.340Z,18.00
2022-09-20T02:54:12.329Z,15.25
2022-09-20T02:57:40.341Z,17.13
2022-09-20T03:00:31.347Z,15.43
2022-09-20T03:03:43.349Z,16.27
2022-09-20T03:06:45.342Z,16.05
2022-09-20T03:09:58.340Z,16.83
2022-09-20T03:12:57.351Z,17.48
2022-09-20T03:15:43.444Z,16.73
2022-09-20T03:18:36.348Z,17.58
2022-09-20T03:21:25.357Z,16.20
2022-09-20T03:24:37.349Z,18.33
2022-09-20T03:28:12.362Z,18.45
2022-09-20T03:31:30.395Z,17.20
2022-09-20T03:34:42.377Z,18.70
2022-09-20T03:37:37.357Z,18.27
2022-09-20T03:40:37.436Z,16.75
2022-09-20T03:44:00.366Z,19.08
2022-09-20T03:46:52.387Z,18.40
2022-09-20T03:49:55.467Z,18.10
2022-09-20T03:53:01.352Z,17.65
2022-09-20T03:56:02.368Z,16.33
2022-09-20T03:59:14.362Z,17.15
2022-09-20T04:02:23.411Z,15.38
2022-09-20T04:05:26.351Z,15.50
2022-09-20T04:08:43.377Z,16.33
2022-09-20T04:11:42.369Z,14.60
2022-09-20T04:14:31.476Z,15.65
2022-09-20T04:17:33.359Z,16.23
2022-09-20T04:20:12.492Z,15.45
2022-09-20T04:23:01.381Z,17.45
2022-09-20T04:25:45.480Z,15.75
2022-09-20T04:28:38.380Z,15.35
2022-09-20T04:31:54.271Z,16.30
2022-09-20T04:35:14.399Z,14.18
2022-09-20T04:38:12.386Z,21.90
2022-09-20T04:41:32.402Z,20.77
2022-09-20T04:44:38.374Z,19.52
2022-09-20T04:47:21.411Z,16.13
2022-09-20T04:51:07.375Z,15.15
2022-09-20T04:54:18.388Z,16.35
2022-09-20T04:56:52.271Z,14.05
2022-09-20T04:59:42.395Z,14.10
2022-09-20T05:02:54.479Z,16.25
2022-09-20T05:06:02.396Z,15.95
2022-09-20T05:08:59.011Z,13.13
2022-09-20T05:11:50.408Z,17.08
2022-09-20T05:14:52.405Z,14.63
2022-09-20T05:17:53.413Z,16.02
2022-09-20T05:20:45.766Z,15.98
2022-09-20T05:23:51.407Z,15.23
2022-09-20T05:26:51.419Z,16.45
2022-09-20T05:30:08.401Z,13.02
2022-09-20T05:33:12.414Z,15.30
2022-09-20T05:36:05.408Z,15.48
2022-09-20T05:39:03.519Z,15.68
2022-09-20T05:42:03.418Z,16.42
2022-09-20T05:45:01.676Z,18.95
2022-09-20T05:47:51.398Z,16.33
2022-09-20T05:50:35.508Z,19.42
2022-09-20T05:53:22.417Z,21.55
2022-09-20T05:56:07.416Z,20.23
2022-09-20T05:59:15.535Z,20.40
2022-09-20T06:02:33.427Z,21.25
2022-09-20T06:05:24.392Z,20.92
2022-09-20T06:08:22.408Z,18.45
2022-09-20T06:11:27.430Z,20.08
2022-09-20T06:14:51.427Z,19.35
2022-09-20T06:18:20.426Z,22.13
2022-09-20T06:21:38.418Z,20.35
2022-09-20T06:24:24.522Z,21.05
2022-09-20T06:27:17.428Z,21.33
2022-09-20T06:29:57.590Z,20.27
2022-09-20T06:33:02.429Z,20.90
2022-09-20T06:35:48.536Z,22.40
2022-09-20T06:39:22.438Z,22.20
2022-09-20T06:42:17.425Z,22.42
2022-09-20T06:45:04.445Z,20.98
2022-09-20T06:47:38.916Z,21.88
2022-09-20T06:50:29.455Z,23.52
2022-09-20T06:53:02.904Z,21.00
2022-09-20T06:55:51.449Z,20.90
2022-09-20T06:58:24.611Z,20.92
2022-09-20T07:01:11.482Z,21.25
2022-09-20T07:03:44.544Z,21.38
2022-09-20T07:06:31.445Z,22.60
2022-09-20T07:09:04.556Z,23.73
2022-09-20T07:11:52.461Z,22.58
2022-09-20T07:14:32.431Z,21.75
2022-09-20T07:17:20.444Z,26.02
2022-09-20T07:20:00.446Z,21.33
2022-09-20T07:22:47.471Z,22.08
2022-09-20T07:25:30.457Z,25.00
2022-09-20T07:28:17.589Z,30.75
2022-09-20T07:30:54.568Z,29.52
2022-09-20T07:33:41.439Z,23.23
2022-09-20T07:36:16.585Z,21.25
2022-09-20T07:39:10.452Z,27.15
2022-09-20T07:42:04.466Z,24.95
2022-09-20T07:44:51.461Z,55.85
2022-09-20T07:47:34.491Z,38.55
2022-09-20T07:50:25.456Z,48.55
2022-09-20T07:52:58.643Z,23.52
2022-09-20T07:55:45.487Z,23.17
2022-09-20T07:58:18.631Z,23.02
2022-09-20T08:01:07.539Z,20.75
2022-09-20T08:03:49.473Z,30.45
2022-09-20T08:06:36.466Z,23.13
2022-09-20T08:09:11.365Z,20.48
2022-09-20T08:11:58.484Z,23.25
2022-09-20T08:14:31.584Z,22.58
2022-09-20T08:17:18.473Z,21.75
2022-09-20T08:19:53.335Z,20.65
2022-09-20T08:22:41.486Z,23.55
2022-09-20T08:25:21.480Z,19.73
2022-09-20T08:28:08.484Z,20.90
2022-09-20T08:30:41.758Z,20.90
2022-09-20T08:33:28.492Z,22.35
2022-09-20T08:36:01.662Z,20.63
2022-09-20T08:41:57.508Z,24.35
2022-09-20T08:45:01.480Z,24.58
2022-09-20T08:48:03.482Z,23.50
2022-09-20T08:50:57.495Z,23.80
2022-09-20T08:53:58.496Z,21.40
2022-09-20T08:56:45.491Z,24.73
2022-09-20T08:59:25.449Z,21.45
2022-09-20T09:02:27.537Z,20.70
2022-09-20T09:05:00.571Z,21.20
2022-09-20T09:07:47.506Z,22.90
2022-09-20T09:10:27.493Z,19.10
2022-09-20T09:13:21.539Z,20.63
2022-09-20T09:16:25.707Z,22.10
2022-09-20T09:19:34.062Z,20.52
2022-09-20T09:22:10.609Z,22.30
2022-09-20T09:25:27.532Z,21.85
2022-09-20T09:28:08.646Z,18.20
2022-09-20T09:30:55.487Z,17.55
2022-09-20T09:33:37.383Z,18.65
2022-09-20T09:36:31.503Z,18.83
2022-09-20T09:39:30.524Z,19.55
2022-09-20T09:42:35.512Z,22.38
2022-09-20T09:45:42.550Z,20.70
2022-09-20T09:48:30.505Z,19.20
2022-09-20T09:51:24.541Z,17.92
2022-09-20T09:54:22.527Z,15.90
2022-09-20T09:57:38.537Z,18.05
2022-09-20T10:00:29.520Z,17.60
2022-09-20T10:03:50.512Z,16.15
2022-09-20T10:06:52.362Z,19.20
2022-09-20T10:09:33.621Z,18.88
2022-09-20T10:12:33.538Z,20.75
2022-09-20T10:15:26.834Z,19.48
2022-09-20T10:18:34.546Z,18.17
2022-09-20T10:21:13.664Z,20.42
2022-09-20T10:24:25.543Z,19.88
2022-09-20T10:27:25.518Z,19.40
2022-09-20T10:30:30.587Z,19.27
2022-09-20T10:33:32.538Z,19.35
2022-09-20T10:36:15.630Z,21.42
2022-09-20T10:39:35.535Z,20.35
2022-09-20T10:43:09.522Z,20.45
2022-09-20T10:46:40.578Z,20.42
2022-09-20T10:49:56.552Z,18.20
2022-09-20T10:52:43.535Z,19.35
2022-09-20T10:55:59.549Z,20.33
2022-09-20T10:58:53.577Z,18.77
2022-09-20T11:02:08.634Z,20.45
2022-09-20T11:05:19.545Z,17.42
2022-09-20T11:08:21.554Z,17.85
2022-09-20T11:11:23.568Z,20.40
2022-09-20T11:14:20.538Z,18.40
2022-09-20T11:17:10.609Z,18.55
2022-09-20T11:20:07.483Z,16.83
2022-09-20T11:22:57.568Z,16.60
2022-09-20T11:26:20.567Z,18.65
2022-09-20T11:29:36.568Z,19.30
2022-09-20T11:32:31.564Z,17.25
2022-09-20T11:35:25.563Z,17.67
2022-09-20T11:38:20.565Z,19.60
2022-09-20T11:41:02.650Z,16.77
2022-09-20T11:43:51.588Z,16.73
2022-09-20T11:46:41.562Z,19.25
2022-09-20T11:49:53.581Z,17.90
2022-09-20T11:53:11.303Z,18.60
2022-09-20T11:56:05.597Z,20.65
2022-09-20T11:58:59.575Z,18.75
2022-09-20T12:01:56.657Z,16.60
2022-09-20T12:04:44.609Z,16.23
2022-09-20T12:07:26.662Z,14.70
2022-09-20T12:10:31.581Z,15.10
2022-09-20T12:13:11.664Z,16.40
2022-09-20T12:16:27.638Z,12.95
2022-09-20T12:19:00.969Z,14.70
2022-09-20T12:22:10.603Z,14.30
2022-09-20T12:24:52.585Z,14.93
2022-09-20T12:27:46.602Z,17.42
2022-09-20T12:30:33.585Z,13.98
2022-09-20T12:33:06.668Z,14.82
2022-09-20T12:36:06.602Z,13.45
2022-09-20T12:38:43.677Z,12.95
2022-09-20T12:41:30.587Z,15.60
2022-09-20T12:44:34.605Z,15.18
2022-09-20T12:47:30.616Z,15.00
2022-09-20T12:50:25.288Z,14.48
2022-09-20T12:53:20.585Z,16.20
2022-09-20T12:56:00.178Z,16.02
2022-09-20T12:59:01.651Z,17.55
2022-09-20T13:01:38.274Z,15.90
2022-09-20T13:05:02.591Z,15.05
2022-09-20T13:07:48.613Z,16.90
2022-09-20T13:10:38.614Z,17.35
2022-09-20T13:13:22.787Z,18.15
2022-09-20T13:16:12.634Z,14.45
2022-09-20T13:18:47.348Z,14.20
2022-09-20T13:21:41.607Z,12.95
2022-09-20T13:24:37.619Z,14.48
2022-09-20T13:27:45.620Z,15.55
2022-09-20T13:30:42.603Z,16.13
2022-09-20T13:33:31.616Z,14.95
2022-09-20T13:36:04.715Z,15.95
2022-09-20T13:38:58.930Z,14.18
2022-09-20T13:41:45.616Z,14.35
2022-09-20T13:44:25.494Z,15.82
2022-09-20T13:47:30.632Z,15.65
2022-09-20T13:50:46.364Z,15.07
2022-09-20T13:53:42.066Z,16.13
2022-09-20T13:56:28.526Z,15.10
2022-09-20T13:59:23.635Z,16.85
2022-09-20T14:01:59.763Z,17.40
2022-09-20T14:04:47.637Z,15.60
2022-09-20T14:07:28.644Z,17.70
2022-09-20T14:10:50.638Z,18.05
2022-09-20T14:13:45.625Z,17.27
2022-09-20T14:16:26.638Z,17.23
2022-09-20T14:19:14.633Z,17.40
2022-09-20T14:21:55.626Z,14.30
2022-09-20T14:24:43.648Z,15.95
2022-09-20T14:27:32.651Z,14.80
2022-09-20T14:30:47.644Z,16.60
2022-09-20T14:33:41.661Z,16.95
2022-09-20T14:36:31.638Z,15.52
2022-09-20T14:39:09.745Z,15.20
2022-09-20T14:41:57.654Z,15.82
2022-09-20T14:44:40.681Z,17.70
2022-09-20T14:47:45.650Z,14.60
2022-09-20T14:50:56.657Z,15.55
2022-09-20T14:53:44.651Z,15.30
2022-09-20T14:56:27.642Z,16.83
2022-09-20T14:59:30.686Z,16.98
2022-09-20T15:02:27.674Z,17.33
2022-09-20T15:05:36.689Z,17.17
2022-09-20T15:08:31.650Z,17.30
2022-09-20T15:11:21.655Z,19.10
2022-09-20T15:13:54.867Z,20.23
2022-09-20T15:16:41.778Z,15.85
2022-09-20T15:19:15.946Z,16.73
2022-09-20T15:22:02.658Z,17.00
2022-09-20T15:24:42.669Z,16.75
2022-09-20T15:27:36.660Z,18.90
2022-09-20T15:30:26.678Z,17.48
2022-09-20T15:33:06.669Z,16.65
2022-09-20T15:36:01.661Z,17.77
2022-09-20T15:38:48.674Z,16.52
2022-09-20T15:41:21.779Z,16.80
2022-09-20T15:44:10.678Z,18.65
2022-09-20T15:46:43.771Z,17.52
2022-09-20T15:49:30.691Z,21.15
2022-09-20T15:52:03.854Z,24.67
2022-09-20T15:54:50.673Z,20.45
2022-09-20T15:57:23.777Z,21.27
2022-09-20T16:00:10.663Z,23.08
2022-09-20T16:02:43.822Z,20.55
2022-09-20T16:05:30.687Z,19.17
2022-09-20T16:08:11.678Z,21.17
2022-09-20T16:11:12.676Z,22.70
2022-09-20T16:14:04.682Z,22.42
2022-09-20T16:16:40.842Z,23.02
2022-09-20T16:19:27.671Z,21.50
2022-09-20T16:22:02.858Z,20.27
2022-09-20T16:24:49.689Z,22.92
2022-09-20T16:27:29.685Z,22.70
2022-09-20T16:30:16.692Z,22.27
2022-09-20T16:32:57.703Z,20.90
2022-09-20T16:35:51.697Z,21.75
2022-09-20T16:38:38.713Z,17.42
2022-09-20T16:41:11.951Z,15.63
2022-09-20T16:43:59.690Z,19.92
2022-09-20T16:46:32.898Z,18.25
2022-09-20T16:49:19.715Z,18.88
2022-09-20T16:51:52.783Z,20.88
2022-09-20T16:54:40.724Z,18.98
2022-09-20T16:57:20.711Z,18.88
2022-09-20T17:00:07.696Z,18.73
2022-09-20T17:02:44.600Z,17.48
2022-09-20T17:05:33.692Z,17.67
2022-09-20T17:08:13.724Z,18.75
2022-09-20T17:11:06.908Z,19.92
2022-09-20T17:13:41.444Z,26.73
2022-09-20T17:16:29.737Z,20.20
2022-09-20T17:19:08.997Z,21.38
2022-09-20T17:21:56.731Z,21.35
2022-09-20T17:24:30.266Z,18.38
2022-09-20T17:27:16.727Z,17.27
2022-09-20T17:29:49.816Z,20.10
2022-09-20T17:32:36.719Z,18.98
2022-09-20T17:35:17.735Z,21.40
2022-09-20T17:38:04.713Z,19.63
2022-09-20T17:40:37.954Z,19.10
2022-09-20T17:43:24.740Z,18.45
2022-09-20T17:46:05.705Z,17.67
2022-09-20T17:48:56.728Z,19.88
2022-09-20T17:51:40.722Z,20.70
2022-09-20T17:54:35.723Z,19.45
2022-09-20T17:57:22.735Z,17.77
2022-09-20T17:59:55.924Z,18.63
2022-09-20T18:02:42.724Z,19.67
2022-09-20T18:05:22.722Z,20.40
2022-09-20T18:08:16.743Z,19.00
2022-09-20T18:11:05.778Z,19.30
2022-09-20T18:13:38.910Z,21.70
2022-09-20T18:16:25.776Z,20.63
2022-09-20T18:19:09.747Z,22.55
2022-09-20T18:21:57.742Z,22.52
2022-09-20T18:24:37.766Z,22.42
2022-09-20T18:27:31.762Z,23.05
2022-09-20T18:30:27.743Z,26.08
2022-09-20T18:33:21.778Z,23.38
2022-09-20T18:36:17.763Z,26.60
2022-09-20T18:39:12.773Z,25.00
2022-09-20T18:42:07.744Z,24.83
2022-09-20T18:45:01.769Z,23.63
2022-09-20T18:47:50.755Z,23.65
2022-09-20T18:50:32.745Z,22.63
2022-09-20T18:53:19.751Z,22.45
2022-09-20T18:55:53.890Z,24.40
2022-09-20T18:58:41.789Z,24.25
2022-09-20T19:01:53.915Z,20.88
2022-09-20T19:05:18.790Z,20.40
2022-09-20T19:08:44.756Z,21.23
2022-09-20T19:11:39.760Z,21.95
2022-09-20T19:14:30.773Z,20.90
2022-09-20T19:17:22.757Z,20.63
2022-09-20T19:20:05.769Z,19.88
2022-09-20T19:23:31.757Z,23.95
2022-09-20T19:26:27.795Z,22.98
2022-09-20T19:29:07.684Z,24.67
2022-09-20T19:32:11.787Z,24.50
2022-09-20T19:35:07.771Z,23.63
2022-09-20T19:38:21.782Z,23.65
2022-09-20T19:41:29.776Z,25.25
2022-09-20T19:44:54.783Z,23.77
2022-09-20T19:48:19.774Z,21.83
2022-09-20T19:51:03.775Z,22.73
2022-09-20T19:53:57.778Z,21.90
2022-09-20T19:57:00.792Z,23.27
2022-09-20T19:59:34.938Z,23.33
2022-09-20T20:02:21.782Z,18.65
2022-09-20T20:04:54.924Z,19.70
2022-09-20T20:07:48.786Z,18.63
2022-09-20T20:10:41.798Z,21.35
2022-09-20T20:13:59.793Z,19.98
2022-09-20T20:16:53.801Z,17.38
2022-09-20T20:19:57.786Z,15.98
2022-09-20T20:23:15.812Z,19.15
2022-09-20T20:26:22.791Z,23.55
2022-09-20T20:29:11.798Z,20.65
2022-09-20T20:31:45.030Z,22.00
2022-09-20T20:34:32.784Z,23.40
2022-09-20T20:37:05.913Z,22.30
2022-09-20T20:40:00.851Z,20.23
2022-09-20T20:42:48.810Z,20.67
2022-09-20T20:45:22.040Z,20.85
2022-09-20T20:48:08.793Z,22.85
2022-09-20T20:50:41.895Z,22.25
2022-09-20T20:53:29.811Z,21.33
2022-09-20T20:56:19.812Z,20.65
2022-09-20T20:59:13.821Z,20.13
2022-09-20T21:02:08.190Z,20.42
2022-09-20T21:04:54.806Z,21.00
2022-09-20T21:07:34.801Z,21.83
2022-09-20T21:10:21.830Z,19.70
2022-09-20T21:13:01.823Z,20.65
2022-09-20T21:15:55.866Z,19.80
2022-09-20T21:18:43.803Z,22.80
2022-09-20T21:21:27.906Z,23.80
2022-09-20T21:24:16.811Z,23.63
2022-09-20T21:26:56.805Z,23.77
2022-09-20T21:29:43.824Z,21.65
2022-09-20T21:32:23.807Z,23.73
2022-09-20T21:35:10.856Z,24.02
2022-09-20T21:37:50.825Z,21.73
2022-09-20T21:40:44.839Z,22.50
2022-09-20T21:43:32.823Z,23.48
2022-09-20T21:46:05.959Z,23.73
2022-09-20T21:48:53.898Z,23.83
2022-09-20T21:51:29.856Z,25.02
2022-09-20T21:54:17.867Z,24.75
2022-09-20T21:56:52.949Z,25.05
2022-09-20T21:59:39.821Z,26.23
2022-09-20T22:02:13.017Z,28.88
2022-09-20T22:04:59.833Z,27.67
2022-09-20T22:07:39.857Z,26.40
2022-09-20T22:10:27.850Z,27.17
2022-09-20T22:13:00.930Z,26.17
2022-09-20T22:15:47.881Z,27.08
2022-09-20T22:18:27.833Z,26.23
2022-09-20T22:21:29.861Z,24.63
2022-09-20T22:24:25.837Z,26.10
2022-09-20T22:27:19.843Z,28.27
2022-09-20T22:30:06.833Z,27.98
2022-09-20T22:32:39.935Z,28.63
2022-09-20T22:35:26.849Z,25.23
2022-09-20T22:38:00.026Z,25.65
2022-09-20T22:40:53.855Z,24.17
2022-09-20T22:43:41.841Z,24.30
2022-09-20T22:46:33.871Z,27.40
2022-09-20T22:49:27.864Z,26.17
2022-09-20T22:52:21.865Z,25.48
2022-09-20T22:55:08.847Z,25.77
2022-09-20T22:57:41.957Z,24.58
2022-09-20T23:00:28.850Z,26.17
2022-09-20T23:03:05.944Z,25.33
2022-09-20T23:05:52.865Z,24.50
2022-09-20T23:08:25.953Z,24.55
2022-09-20T23:11:12.915Z,21.92
2022-09-20T23:13:52.863Z,23.40
2022-09-20T23:16:41.928Z,24.58
2022-09-20T23:19:16.100Z,25.95
2022-09-20T23:22:02.860Z,24.90
2022-09-20T23:24:42.853Z,22.00
2022-09-20T23:27:29.880Z,22.13
2022-09-20T23:30:02.995Z,23.48
2022-09-20T23:32:49.889Z,23.77
2022-09-20T23:35:22.953Z,23.80
2022-09-20T23:38:09.894Z,23.88
2022-09-20T23:40:49.891Z,24.40
2022-09-20T23:43:36.854Z,24.40
2022-09-20T23:46:12.062Z,25.83
2022-09-20T23:48:59.891Z,25.55
2022-09-20T23:51:34.137Z,26.45
2022-09-20T23:54:20.885Z,25.60
2022-09-20T23:57:00.881Z,23.75
2022-09-20T23:59:54.887Z,24.23
